Terminal Aerodrome Forecast
Issued by NWS Los Angeles, CA

Home | Current Version | Previous Version | Text Only | Print | Product List | Glossary On
Versions: 1 2 3 4 5 6 7 8 9 10 11 12 13
014
FTUS46 KLOX 160303 AAA
TAFSMX
TAF AMD
KSMX 160303Z 1603/1624 VRB03KT 4SM BR BKN004 BKN250
     FM161400 33009KT P6SM SCT250
     FM161600 33014G20KT P6SM SCT250=

USA.gov is the U.S. government's official web portal to all federal, state and local government web resources and services.